createdAt,value
2023-02-07T00:00:17.420Z,1.58
2023-02-07T00:02:48.466Z,1.63
2023-02-07T00:05:15.981Z,3.65
2023-02-07T00:07:42.821Z,2.00
2023-02-07T00:10:09.850Z,1.45
2023-02-07T00:12:36.375Z,0.88
2023-02-07T00:15:04.584Z,0.93
2023-02-07T00:17:31.996Z,1.92
2023-02-07T00:19:58.565Z,1.40
2023-02-07T00:22:25.208Z,2.08
2023-02-07T00:24:51.762Z,2.15
2023-02-07T00:27:18.389Z,1.80
2023-02-07T00:29:45.310Z,2.72
2023-02-07T00:32:12.312Z,1.60
2023-02-07T00:34:38.928Z,2.28
2023-02-07T00:37:06.152Z,1.48
2023-02-07T00:39:33.408Z,1.75
2023-02-07T00:42:00.017Z,1.33
2023-02-07T00:44:26.598Z,1.58
2023-02-07T00:46:53.263Z,1.02
2023-02-07T00:49:20.016Z,1.65
2023-02-07T00:51:46.504Z,1.55
2023-02-07T00:54:13.355Z,1.20
2023-02-07T00:56:40.002Z,0.90
2023-02-07T00:59:06.985Z,2.70
2023-02-07T01:01:35.340Z,1.08
2023-02-07T01:04:02.113Z,2.33
2023-02-07T01:06:29.507Z,1.67
2023-02-07T01:08:57.972Z,1.20
2023-02-07T01:11:24.547Z,2.55
2023-02-07T01:13:51.370Z,1.90
2023-02-07T01:16:32.947Z,1.52
2023-02-07T01:19:02.454Z,1.98
2023-02-07T01:21:29.419Z,1.20
2023-02-07T01:23:56.657Z,1.05
2023-02-07T01:26:26.771Z,2.05
2023-02-07T01:28:55.066Z,1.63
2023-02-07T01:31:23.044Z,1.38
2023-02-07T01:33:57.631Z,1.25
2023-02-07T01:36:25.448Z,1.30
2023-02-07T01:38:53.756Z,2.03
2023-02-07T01:41:21.962Z,1.88
2023-02-07T01:44:02.058Z,1.60
2023-02-07T01:46:30.033Z,0.88
2023-02-07T01:48:59.468Z,1.75
2023-02-07T01:51:26.908Z,1.40
2023-02-07T01:53:56.404Z,1.65
2023-02-07T01:56:31.711Z,1.90
2023-02-07T01:59:01.865Z,1.35
2023-02-07T02:01:28.476Z,2.63
2023-02-07T02:03:56.354Z,2.35
2023-02-07T02:06:25.372Z,1.25
2023-02-07T02:08:57.889Z,1.27
2023-02-07T02:11:30.453Z,1.65
2023-02-07T02:13:56.964Z,1.52
2023-02-07T02:16:29.549Z,1.33
2023-02-07T02:19:11.183Z,1.38
2023-02-07T02:21:57.763Z,1.42
2023-02-07T02:24:32.453Z,3.25
2023-02-07T02:27:36.619Z,1.55
2023-02-07T02:30:27.997Z,1.98
2023-02-07T02:33:00.211Z,1.13
2023-02-07T02:36:02.928Z,1.50
2023-02-07T02:38:47.824Z,1.38
2023-02-07T02:41:18.714Z,0.98
2023-02-07T02:43:59.969Z,1.08
2023-02-07T02:46:30.873Z,2.50
2023-02-07T02:48:59.734Z,2.75
2023-02-07T02:51:31.900Z,2.35
2023-02-07T02:54:00.438Z,2.70
2023-02-07T02:57:16.683Z,1.73
2023-02-07T03:00:01.636Z,2.10
2023-02-07T03:02:39.055Z,1.88
2023-02-07T03:05:44.545Z,2.13
2023-02-07T03:08:38.709Z,0.98
2023-02-07T03:11:06.204Z,0.98
2023-02-07T03:13:44.373Z,1.70
2023-02-07T03:16:23.567Z,1.75
2023-02-07T03:18:58.875Z,1.35
2023-02-07T03:21:38.079Z,1.20
2023-02-07T03:24:09.406Z,1.77
2023-02-07T03:26:37.126Z,1.75
2023-02-07T03:29:05.771Z,2.58
2023-02-07T03:31:34.255Z,1.20
2023-02-07T03:34:11.112Z,1.58
2023-02-07T03:36:51.153Z,1.42
2023-02-07T03:39:17.678Z,2.67
2023-02-07T03:41:47.998Z,1.98
2023-02-07T03:46:41.441Z,1.27
2023-02-07T03:49:08.270Z,1.70
2023-02-07T03:51:36.234Z,2.65
2023-02-07T03:54:02.931Z,2.05
2023-02-07T03:56:29.497Z,1.75
2023-02-07T03:58:55.997Z,1.63
2023-02-07T04:01:22.654Z,1.88
2023-02-07T04:03:49.202Z,1.70
2023-02-07T04:06:15.837Z,2.80
2023-02-07T04:08:42.856Z,2.33
2023-02-07T04:11:09.447Z,1.30
2023-02-07T04:13:36.066Z,2.72
2023-02-07T04:16:02.737Z,1.08
2023-02-07T04:18:29.455Z,1.30
2023-02-07T04:21:07.219Z,1.40
2023-02-07T04:23:34.656Z,2.17
2023-02-07T04:26:01.776Z,1.88
2023-02-07T04:28:28.537Z,3.10
2023-02-07T04:30:55.315Z,1.45
2023-02-07T04:33:22.299Z,1.77
2023-02-07T04:36:07.978Z,1.95
2023-02-07T04:38:34.533Z,2.08
2023-02-07T04:41:04.164Z,1.90
2023-02-07T04:43:35.502Z,1.63
2023-02-07T04:46:03.158Z,2.47
2023-02-07T04:48:29.816Z,1.48
2023-02-07T04:50:56.530Z,2.08
2023-02-07T04:53:23.233Z,2.35
2023-02-07T04:55:50.854Z,2.50
2023-02-07T04:58:17.685Z,1.70
2023-02-07T05:00:44.552Z,2.47
2023-02-07T05:03:11.094Z,1.40
2023-02-07T05:05:44.656Z,1.70
2023-02-07T05:08:12.002Z,1.20
2023-02-07T05:10:39.046Z,2.05
2023-02-07T05:13:06.193Z,2.08
2023-02-07T05:15:33.644Z,3.55
2023-02-07T05:18:00.244Z,1.33
2023-02-07T05:20:28.516Z,1.13
2023-02-07T05:22:55.456Z,1.63
2023-02-07T05:25:22.529Z,2.05
2023-02-07T05:27:49.167Z,1.48
2023-02-07T05:30:15.750Z,1.90
2023-02-07T05:33:01.084Z,1.90
2023-02-07T05:35:27.589Z,1.92
2023-02-07T05:37:54.201Z,2.20
2023-02-07T05:40:20.830Z,2.08
2023-02-07T05:42:47.392Z,1.55
2023-02-07T05:45:13.956Z,1.67
2023-02-07T05:47:50.022Z,3.53
2023-02-07T05:50:17.610Z,2.05
2023-02-07T05:52:44.773Z,1.42
2023-02-07T05:55:13.021Z,2.03
2023-02-07T05:57:43.687Z,2.00
2023-02-07T06:00:14.664Z,1.85
2023-02-07T06:02:41.405Z,2.95
2023-02-07T06:05:09.162Z,2.03
2023-02-07T06:07:58.076Z,1.42
2023-02-07T06:10:37.270Z,2.33
2023-02-07T06:13:03.840Z,1.23
2023-02-07T06:15:34.503Z,1.77
2023-02-07T06:18:01.694Z,0.98
2023-02-07T06:20:28.534Z,2.85
2023-02-07T06:22:55.305Z,0.85
2023-02-07T06:25:21.865Z,1.70
2023-02-07T06:27:48.480Z,1.25
2023-02-07T06:30:15.052Z,1.40
2023-02-07T06:32:41.654Z,2.40
2023-02-07T06:35:09.116Z,2.25
2023-02-07T06:37:35.790Z,2.08
2023-02-07T06:40:11.531Z,1.75
2023-02-07T06:42:51.246Z,2.38
2023-02-07T06:45:28.512Z,2.53
2023-02-07T06:47:57.197Z,2.08
2023-02-07T06:50:27.128Z,1.70
2023-02-07T06:52:53.645Z,1.60
2023-02-07T06:55:20.147Z,2.17
2023-02-07T06:57:46.688Z,1.75
2023-02-07T07:00:14.465Z,1.63
2023-02-07T07:02:41.070Z,1.88
2023-02-07T07:05:09.279Z,4.00
2023-02-07T07:07:35.912Z,2.30
2023-02-07T07:10:02.506Z,1.70
2023-02-07T07:12:29.304Z,2.08
2023-02-07T07:14:55.914Z,3.33
2023-02-07T07:17:23.340Z,1.50
2023-02-07T07:19:49.911Z,2.60
2023-02-07T07:22:16.581Z,2.50
2023-02-07T07:24:43.419Z,2.45
2023-02-07T07:27:09.999Z,3.47
2023-02-07T07:29:36.565Z,2.67
2023-02-07T07:32:03.286Z,2.28
2023-02-07T07:34:29.765Z,1.65
2023-02-07T07:36:56.784Z,2.00
2023-02-07T07:39:24.161Z,2.83
2023-02-07T07:41:50.763Z,1.70
2023-02-07T07:47:00.855Z,1.58
2023-02-07T07:49:27.478Z,1.30
2023-02-07T07:52:01.205Z,2.17
2023-02-07T07:54:28.421Z,1.25
2023-02-07T07:56:54.925Z,1.13
2023-02-07T07:59:24.269Z,1.20
2023-02-07T08:01:50.971Z,0.90
2023-02-07T08:04:17.505Z,2.03
2023-02-07T08:06:45.690Z,0.98
2023-02-07T08:09:12.248Z,3.03
2023-02-07T08:11:38.793Z,1.05
2023-02-07T08:14:05.381Z,1.55
2023-02-07T08:16:31.999Z,2.33
2023-02-07T08:18:59.159Z,1.75
2023-02-07T08:21:26.695Z,2.55
2023-02-07T08:23:54.673Z,3.30
2023-02-07T08:26:21.380Z,3.10
2023-02-07T08:28:49.505Z,1.33
2023-02-07T08:31:21.418Z,1.13
2023-02-07T08:33:48.777Z,2.55
2023-02-07T08:36:20.415Z,2.42
2023-02-07T08:39:00.990Z,1.27
2023-02-07T08:41:28.312Z,2.30
2023-02-07T08:43:54.851Z,3.70
2023-02-07T08:46:21.399Z,1.73
2023-02-07T08:48:47.938Z,1.90
2023-02-07T08:51:14.479Z,2.40
2023-02-07T08:53:40.951Z,3.95
2023-02-07T08:56:08.857Z,2.00
2023-02-07T08:58:35.537Z,3.00
2023-02-07T09:01:02.235Z,3.22
2023-02-07T09:03:28.824Z,2.75
2023-02-07T09:05:59.102Z,3.40
2023-02-07T09:08:25.631Z,2.50
2023-02-07T09:10:52.739Z,3.42
2023-02-07T09:13:19.306Z,3.17
2023-02-07T09:15:45.826Z,3.45
2023-02-07T09:18:12.360Z,3.83
2023-02-07T09:20:40.079Z,3.40
2023-02-07T09:23:19.273Z,4.22
2023-02-07T09:25:47.711Z,3.20
2023-02-07T09:28:14.408Z,3.25
2023-02-07T09:30:45.258Z,4.63
2023-02-07T09:33:12.753Z,3.85
2023-02-07T09:35:41.566Z,4.25
2023-02-07T09:38:12.251Z,4.90
2023-02-07T09:40:39.567Z,4.50
2023-02-07T09:43:51.381Z,5.13
2023-02-07T09:46:22.982Z,3.75
2023-02-07T09:48:56.494Z,4.60
2023-02-07T09:51:23.944Z,3.88
2023-02-07T09:54:19.937Z,3.72
2023-02-07T09:56:47.666Z,4.00
2023-02-07T09:59:32.629Z,3.70
2023-02-07T10:02:01.242Z,3.33
2023-02-07T10:04:35.874Z,2.97
2023-02-07T10:07:04.555Z,3.90
2023-02-07T10:09:32.602Z,3.60
2023-02-07T10:12:41.723Z,3.67
2023-02-07T10:15:18.721Z,4.35
2023-02-07T10:18:08.690Z,3.17
2023-02-07T10:20:35.750Z,4.50
2023-02-07T10:23:22.395Z,4.47
2023-02-07T10:26:20.111Z,3.35
2023-02-07T10:29:14.955Z,4.15
2023-02-07T10:31:51.222Z,4.93
2023-02-07T10:34:51.558Z,5.00
2023-02-07T10:37:24.832Z,2.85
2023-02-07T10:39:57.711Z,2.95
2023-02-07T10:42:24.296Z,2.95
2023-02-07T10:44:51.112Z,4.78
2023-02-07T10:47:18.527Z,3.78
2023-02-07T10:49:47.988Z,5.10
2023-02-07T10:52:20.643Z,3.85
2023-02-07T10:54:56.556Z,3.22
2023-02-07T10:57:23.262Z,5.43
2023-02-07T10:59:56.932Z,3.47
2023-02-07T11:02:32.496Z,3.45
2023-02-07T11:05:24.512Z,3.83
2023-02-07T11:08:19.433Z,2.83
2023-02-07T11:10:46.847Z,2.70
2023-02-07T11:13:27.360Z,4.18
2023-02-07T11:15:57.460Z,5.07
2023-02-07T11:18:28.709Z,3.72
2023-02-07T11:20:56.357Z,3.50
2023-02-07T11:23:23.533Z,3.38
2023-02-07T11:25:54.382Z,4.43
2023-02-07T11:28:27.293Z,3.90
2023-02-07T11:30:58.537Z,2.70
2023-02-07T11:33:27.408Z,3.90
2023-02-07T11:36:17.018Z,2.85
2023-02-07T11:38:55.123Z,4.10
2023-02-07T11:41:32.467Z,4.28
2023-02-07T11:44:15.109Z,4.07
2023-02-07T11:49:26.098Z,2.97
2023-02-07T11:51:58.582Z,4.10
2023-02-07T11:54:26.009Z,3.55
2023-02-07T11:57:00.022Z,3.67
2023-02-07T11:59:28.154Z,3.28
2023-02-07T12:01:57.643Z,2.47
2023-02-07T12:04:34.322Z,2.55
2023-02-07T12:07:05.451Z,3.35
2023-02-07T12:09:40.378Z,2.83
2023-02-07T12:12:18.126Z,2.90
2023-02-07T12:15:15.230Z,2.83
2023-02-07T12:17:57.154Z,2.97
2023-02-07T12:20:27.428Z,2.88
2023-02-07T12:23:21.730Z,4.30
2023-02-07T12:26:01.889Z,3.72
2023-02-07T12:28:37.964Z,3.50
2023-02-07T12:31:15.343Z,3.08
2023-02-07T12:33:52.392Z,4.28
2023-02-07T12:36:34.309Z,3.30
2023-02-07T12:39:06.754Z,3.83
2023-02-07T12:41:45.627Z,3.28
2023-02-07T12:44:25.816Z,4.20
2023-02-07T12:47:08.223Z,3.80
2023-02-07T12:52:37.259Z,2.50
2023-02-07T12:55:34.256Z,3.95
2023-02-07T12:58:19.076Z,3.38
2023-02-07T13:01:22.046Z,3.17
2023-02-07T13:04:00.513Z,2.60
2023-02-07T13:06:45.653Z,3.28
2023-02-07T13:09:21.168Z,3.05
2023-02-07T13:12:11.496Z,3.20
2023-02-07T13:15:01.975Z,2.80
2023-02-07T13:17:37.504Z,3.20
2023-02-07T13:20:07.151Z,2.95
2023-02-07T13:22:42.298Z,3.30
2023-02-07T13:25:16.722Z,3.60
2023-02-07T13:27:43.658Z,3.90
2023-02-07T13:30:17.580Z,3.67
2023-02-07T13:32:44.761Z,2.72
2023-02-07T13:35:21.983Z,3.85
2023-02-07T13:37:51.330Z,3.03
2023-02-07T13:43:04.742Z,3.20
2023-02-07T13:45:43.565Z,4.00
2023-02-07T13:48:32.578Z,2.88
2023-02-07T13:51:04.619Z,3.50
2023-02-07T13:53:50.522Z,3.10
2023-02-07T13:56:35.778Z,3.05
2023-02-07T13:59:20.833Z,3.78
2023-02-07T14:01:50.897Z,3.42
2023-02-07T14:04:18.230Z,4.18
2023-02-07T14:06:53.609Z,3.38
2023-02-07T14:09:32.575Z,3.45
2023-02-07T14:12:01.706Z,3.40
2023-02-07T14:14:28.221Z,2.83
2023-02-07T14:17:00.215Z,2.72
2023-02-07T14:19:45.484Z,2.55
2023-02-07T14:22:15.106Z,3.10
2023-02-07T14:25:12.196Z,2.83
2023-02-07T14:27:42.479Z,3.28
2023-02-07T14:30:12.939Z,3.20
2023-02-07T14:32:48.779Z,2.50
2023-02-07T14:35:18.055Z,2.60
2023-02-07T14:37:58.947Z,3.80
2023-02-07T14:40:35.148Z,2.45
2023-02-07T14:43:13.749Z,2.50
2023-02-07T14:45:57.571Z,2.80
2023-02-07T14:48:47.202Z,3.38
2023-02-07T14:51:28.894Z,2.35
2023-02-07T14:54:03.501Z,3.42
2023-02-07T14:56:57.898Z,2.83
2023-02-07T14:59:46.708Z,3.35
2023-02-07T15:02:32.866Z,2.90
2023-02-07T15:05:15.618Z,3.22
2023-02-07T15:07:43.842Z,3.83
2023-02-07T15:10:25.643Z,3.80
2023-02-07T15:12:56.545Z,2.38
2023-02-07T15:15:42.975Z,2.80
2023-02-07T15:18:12.555Z,3.55
2023-02-07T15:20:39.580Z,3.40
2023-02-07T15:23:09.111Z,4.40
2023-02-07T15:25:36.195Z,3.10
2023-02-07T15:28:25.390Z,3.55
2023-02-07T15:31:05.463Z,2.95
2023-02-07T15:33:52.649Z,3.25
2023-02-07T15:36:29.219Z,3.13
2023-02-07T15:38:56.699Z,3.35
2023-02-07T15:41:23.360Z,4.85
2023-02-07T15:44:02.746Z,3.63
2023-02-07T15:46:48.043Z,3.17
2023-02-07T15:49:30.554Z,2.63
2023-02-07T15:52:13.980Z,4.07
2023-02-07T15:54:45.063Z,4.68
2023-02-07T15:57:20.277Z,2.30
2023-02-07T15:59:51.981Z,2.88
2023-02-07T16:02:31.571Z,3.83
2023-02-07T16:04:59.266Z,2.83
2023-02-07T16:07:25.800Z,3.10
2023-02-07T16:09:55.135Z,2.33
2023-02-07T16:12:32.980Z,3.92
2023-02-07T16:15:00.910Z,3.50
2023-02-07T16:17:42.281Z,3.80
2023-02-07T16:20:14.195Z,4.07
2023-02-07T16:22:43.764Z,2.78
2023-02-07T16:25:34.384Z,3.80
2023-02-07T16:28:01.653Z,2.58
2023-02-07T16:30:31.536Z,3.50
2023-02-07T16:32:58.094Z,2.20
2023-02-07T16:35:26.417Z,3.10
2023-02-07T16:37:54.037Z,3.35
2023-02-07T16:40:24.544Z,3.25
2023-02-07T16:42:53.063Z,2.95
2023-02-07T16:45:22.266Z,2.65
2023-02-07T16:47:48.947Z,3.17
2023-02-07T16:50:23.523Z,2.50
2023-02-07T16:52:51.397Z,2.05
2023-02-07T16:55:19.669Z,3.55
2023-02-07T16:57:48.044Z,2.80
2023-02-07T17:00:23.355Z,2.30
2023-02-07T17:02:50.871Z,2.28
2023-02-07T17:05:19.240Z,2.97
2023-02-07T17:07:46.409Z,2.45
2023-02-07T17:10:23.305Z,1.98
2023-02-07T17:12:49.882Z,3.25
2023-02-07T17:15:16.796Z,3.75
2023-02-07T17:17:43.511Z,3.05
2023-02-07T17:20:30.505Z,3.72
2023-02-07T17:22:57.508Z,2.70
2023-02-07T17:25:27.537Z,3.13
2023-02-07T17:27:54.264Z,3.20
2023-02-07T17:30:23.897Z,2.80
2023-02-07T17:32:50.612Z,3.85
2023-02-07T17:35:17.309Z,3.55
2023-02-07T17:37:44.123Z,3.17
2023-02-07T17:40:17.930Z,3.75
2023-02-07T17:42:44.476Z,2.92
2023-02-07T17:45:10.992Z,2.55
2023-02-07T17:47:37.558Z,4.03
2023-02-07T17:50:04.572Z,4.05
2023-02-07T17:52:31.343Z,6.22
2023-02-07T17:54:58.775Z,6.00
2023-02-07T17:57:25.450Z,4.75
2023-02-07T17:59:51.975Z,4.63
2023-02-07T18:02:18.533Z,3.67
2023-02-07T18:04:45.126Z,3.33
2023-02-07T18:07:11.630Z,3.30
2023-02-07T18:09:38.268Z,2.67
2023-02-07T18:12:05.748Z,3.38
2023-02-07T18:14:32.262Z,3.25
2023-02-07T18:16:58.802Z,3.35
2023-02-07T18:19:25.353Z,3.42
2023-02-07T18:21:51.847Z,2.92
2023-02-07T18:24:18.431Z,4.07
2023-02-07T18:26:46.353Z,2.55
2023-02-07T18:29:12.969Z,3.17
2023-02-07T18:31:39.679Z,2.17
2023-02-07T18:34:08.488Z,2.22
2023-02-07T18:36:40.053Z,2.50
2023-02-07T18:39:07.877Z,2.80
2023-02-07T18:41:35.341Z,2.92
2023-02-07T18:44:05.369Z,2.03
2023-02-07T18:46:32.869Z,2.95
2023-02-07T18:48:59.837Z,3.17
2023-02-07T18:51:26.744Z,3.08
2023-02-07T18:53:56.072Z,3.28
2023-02-07T18:56:24.821Z,3.47
2023-02-07T18:58:56.715Z,2.97
2023-02-07T19:01:25.400Z,2.50
2023-02-07T19:03:58.248Z,3.05
2023-02-07T19:06:27.399Z,3.78
2023-02-07T19:08:54.087Z,2.28
2023-02-07T19:11:20.816Z,3.67
2023-02-07T19:13:47.586Z,3.65
2023-02-07T19:16:19.861Z,3.53
2023-02-07T19:18:47.207Z,2.90
2023-02-07T19:21:20.726Z,3.28
2023-02-07T19:23:47.861Z,3.13
2023-02-07T19:26:14.391Z,4.80
2023-02-07T19:28:41.106Z,4.28
2023-02-07T19:31:09.763Z,3.42
2023-02-07T19:33:36.922Z,3.22
2023-02-07T19:36:09.020Z,3.78
2023-02-07T19:38:35.894Z,2.95
2023-02-07T19:41:02.974Z,3.95
2023-02-07T19:43:29.849Z,5.28
2023-02-07T19:45:56.579Z,4.88
2023-02-07T19:48:23.354Z,4.68
2023-02-07T19:51:00.971Z,4.82
2023-02-07T19:53:28.946Z,3.67
2023-02-07T19:56:02.366Z,3.58
2023-02-07T19:58:30.812Z,2.95
2023-02-07T20:00:57.877Z,4.18
2023-02-07T20:03:24.950Z,3.55
2023-02-07T20:05:52.977Z,3.55
2023-02-07T20:08:20.825Z,3.25
2023-02-07T20:10:48.131Z,3.35
2023-02-07T20:13:14.732Z,2.58
2023-02-07T20:15:41.985Z,3.72
2023-02-07T20:18:09.028Z,4.55
2023-02-07T20:20:40.404Z,3.78
2023-02-07T20:23:07.460Z,3.00
2023-02-07T20:25:34.873Z,2.47
2023-02-07T20:28:01.626Z,3.40
2023-02-07T20:30:28.400Z,2.08
2023-02-07T20:32:55.631Z,3.35
2023-02-07T20:35:22.958Z,2.97
2023-02-07T20:37:49.882Z,3.92
2023-02-07T20:40:17.607Z,3.08
2023-02-07T20:42:45.868Z,3.40
2023-02-07T20:45:12.394Z,3.63
2023-02-07T20:47:43.723Z,3.83
2023-02-07T20:50:10.541Z,4.18
2023-02-07T20:52:37.757Z,3.53
2023-02-07T20:55:05.633Z,3.50
2023-02-07T20:57:32.386Z,4.10
2023-02-07T20:59:59.021Z,3.58
2023-02-07T21:02:25.633Z,3.60
2023-02-07T21:04:52.217Z,3.25
2023-02-07T21:07:18.836Z,3.25
2023-02-07T21:09:45.435Z,2.63
2023-02-07T21:12:12.151Z,3.63
2023-02-07T21:14:40.069Z,3.38
2023-02-07T21:17:07.119Z,3.75
2023-02-07T21:19:35.012Z,3.90
2023-02-07T21:22:01.604Z,2.55
2023-02-07T21:24:28.324Z,2.97
2023-02-07T21:26:55.880Z,3.63
2023-02-07T21:29:22.509Z,2.92
2023-02-07T21:31:49.301Z,2.22
2023-02-07T21:34:17.787Z,4.97
2023-02-07T21:36:44.909Z,3.75
2023-02-07T21:39:12.040Z,3.83
2023-02-07T21:41:41.286Z,3.70
2023-02-07T21:44:08.457Z,4.82
2023-02-07T21:46:37.358Z,3.42
2023-02-07T21:49:06.471Z,5.22
2023-02-07T21:51:34.867Z,4.60
2023-02-07T21:54:03.101Z,3.70
2023-02-07T21:56:31.647Z,4.65
2023-02-07T21:59:06.552Z,3.05
2023-02-07T22:01:35.738Z,3.17
2023-02-07T22:04:03.804Z,2.50
2023-02-07T22:06:30.824Z,3.75
2023-02-07T22:08:59.763Z,2.97
2023-02-07T22:11:29.338Z,2.53
2023-02-07T22:13:56.407Z,2.45
2023-02-07T22:16:25.190Z,3.05
2023-02-07T22:18:53.397Z,1.73
2023-02-07T22:21:21.578Z,3.60
2023-02-07T22:23:49.209Z,2.80
2023-02-07T22:26:17.703Z,2.38
2023-02-07T22:28:45.022Z,2.05
2023-02-07T22:31:16.130Z,2.15
2023-02-07T22:33:43.091Z,2.05
2023-02-07T22:36:17.455Z,2.53
2023-02-07T22:38:44.007Z,3.05
2023-02-07T22:41:10.625Z,2.42
2023-02-07T22:43:38.361Z,2.67
2023-02-07T22:46:06.105Z,2.30
2023-02-07T22:48:33.275Z,2.00
2023-02-07T22:51:00.455Z,2.75
2023-02-07T22:53:27.059Z,2.95
2023-02-07T22:55:53.600Z,3.53
2023-02-07T22:58:20.136Z,3.13
2023-02-07T23:00:46.704Z,2.25
2023-02-07T23:03:13.197Z,2.78
2023-02-07T23:05:39.839Z,1.85
2023-02-07T23:08:06.569Z,2.40
2023-02-07T23:10:33.193Z,2.50
2023-02-07T23:12:59.875Z,2.58
2023-02-07T23:15:26.605Z,2.88
2023-02-07T23:17:53.266Z,2.53
2023-02-07T23:20:20.220Z,1.73
2023-02-07T23:22:46.697Z,2.58
2023-02-07T23:25:15.853Z,1.90
2023-02-07T23:27:44.047Z,1.75
2023-02-07T23:30:12.620Z,2.08
2023-02-07T23:32:39.542Z,1.70
2023-02-07T23:35:06.519Z,2.30
2023-02-07T23:37:33.476Z,1.83
2023-02-07T23:40:00.111Z,1.85
2023-02-07T23:42:26.681Z,2.50
2023-02-07T23:44:53.366Z,2.47
2023-02-07T23:47:20.170Z,2.38
2023-02-07T23:49:46.839Z,2.78
2023-02-07T23:52:13.407Z,1.75
2023-02-07T23:54:39.998Z,1.95
2023-02-07T23:57:06.648Z,2.28
2023-02-07T23:59:34.691Z,3.05
